Time;durP1;ratioP1;P1;durP2;ratioP2;P2;SDS_P1;SDS_P2;PMS_P1;PMS_P2;Temp;Humidity;BMP_temperature;BMP_pressure;BME280_temperature;BME280_humidity;BME280_pressure;Samples;Min_cycle;Max_cycle;Signal;HPM_P1;HPM_P2
2023/09/08 00:00:29;;;;;;;0.90;0.80;;;15.10;81.40;;;;;;5072125;28;20483;-76
2023/09/08 00:02:59;;;;;;;2.33;0.80;;;15.10;81.00;;;;;;5072209;28;20013;-75
2023/09/08 00:05:26;;;;;;;1.58;0.82;;;15.00;81.10;;;;;;5072474;28;20101;-77
2023/09/08 00:07:54;;;;;;;1.25;0.90;;;15.00;81.30;;;;;;5072258;28;20016;-78
2023/09/08 00:10:21;;;;;;;3.42;1.05;;;15.00;81.20;;;;;;5074280;28;20026;-78
2023/09/08 00:12:48;;;;;;;1.05;0.75;;;15.00;81.50;;;;;;5074745;28;20470;-77
2023/09/08 00:15:16;;;;;;;3.13;1.10;;;15.00;80.70;;;;;;5075863;28;20043;-76
2023/09/08 00:17:43;;;;;;;1.35;0.70;;;14.90;80.80;;;;;;5076107;28;20029;-80
2023/09/08 00:20:11;;;;;;;3.03;0.75;;;14.90;80.90;;;;;;5076041;28;20097;-77
2023/09/08 00:22:39;;;;;;;1.35;0.63;;;14.90;80.90;;;;;;5075825;28;20024;-76
2023/09/08 00:25:07;;;;;;;2.65;0.70;;;14.90;81.30;;;;;;5075612;28;20383;-77
2023/09/08 00:27:35;;;;;;;0.98;0.60;;;14.90;81.50;;;;;;5075507;28;20458;-78
2023/09/08 00:30:06;;;;;;;1.23;0.80;;;14.90;81.70;;;;;;5075858;28;20082;-78
2023/09/08 00:32:33;;;;;;;2.15;0.75;;;14.90;81.20;;;;;;5075669;28;20368;-77
2023/09/08 00:35:01;;;;;;;2.60;0.90;;;14.80;81.10;;;;;;5075434;28;20555;-77
2023/09/08 00:37:28;;;;;;;2.65;0.73;;;14.80;81.40;;;;;;5075545;28;20487;-78
2023/09/08 00:39:55;;;;;;;0.90;0.80;;;14.90;81.60;;;;;;5075619;28;20052;-78
2023/09/08 00:42:23;;;;;;;1.75;1.00;;;14.90;81.40;;;;;;5075518;28;20083;-77
2023/09/08 00:44:50;;;;;;;2.45;1.25;;;14.90;81.50;;;;;;5074031;28;20082;-76
2023/09/08 00:47:18;;;;;;;6.97;1.10;;;14.90;81.70;;;;;;5075250;28;20059;-77
2023/09/08 00:49:46;;;;;;;3.55;1.05;;;14.80;81.60;;;;;;5075149;28;20025;-76
2023/09/08 00:52:13;;;;;;;3.35;1.38;;;14.70;82.20;;;;;;5075354;28;20029;-76
2023/09/08 00:54:41;;;;;;;1.48;1.00;;;14.70;82.50;;;;;;5075336;28;20043;-75
2023/09/08 00:57:09;;;;;;;0.80;0.80;;;14.70;82.20;;;;;;5075118;28;20028;-77
2023/09/08 00:59:37;;;;;;;1.27;0.73;;;14.70;82.10;;;;;;5073686;28;20024;-77
2023/09/08 01:02:05;;;;;;;1.60;0.80;;;14.60;82.20;;;;;;5074788;28;20028;-76
2023/09/08 01:04:33;;;;;;;2.67;0.73;;;14.70;82.80;;;;;;5075180;28;20078;-76
2023/09/08 01:07:01;;;;;;;1.20;0.70;;;14.50;82.20;;;;;;5074898;28;20463;-76
2023/09/08 01:09:29;;;;;;;1.80;0.75;;;14.60;83.40;;;;;;5075191;28;20352;-77
2023/09/08 01:12:00;;;;;;;3.13;1.05;;;14.70;83.10;;;;;;5074910;28;20021;-78
2023/09/08 01:14:28;;;;;;;0.77;0.70;;;14.70;82.80;;;;;;5074796;28;20028;-77
2023/09/08 01:16:55;;;;;;;1.13;0.80;;;14.60;83.10;;;;;;5074722;28;20032;-76
2023/09/08 01:19:23;;;;;;;4.13;0.80;;;14.70;82.90;;;;;;5074868;28;20017;-78
2023/09/08 01:22:32;;;;;;;1.77;0.80;;;14.70;82.90;;;;;;5074517;28;20029;-79
2023/09/08 01:25:14;;;;;;;2.30;0.60;;;14.60;82.40;;;;;;5071634;28;20036;-77
2023/09/08 01:27:46;;;;;;;2.15;0.80;;;14.50;82.60;;;;;;5074414;28;20102;-76
2023/09/08 01:30:15;;;;;;;2.20;0.82;;;14.50;82.50;;;;;;5075152;28;20032;-76
2023/09/08 01:32:44;;;;;;;1.73;0.70;;;14.50;82.70;;;;;;5074500;28;20020;-77
2023/09/08 01:35:12;;;;;;;1.27;1.00;;;14.50;82.90;;;;;;5074281;28;20033;-77
2023/09/08 01:37:47;;;;;;;5.53;1.00;;;14.60;83.00;;;;;;5074465;28;20082;-76
2023/09/08 01:40:15;;;;;;;0.77;0.57;;;14.60;82.80;;;;;;5074602;28;20024;-77
2023/09/08 01:42:43;;;;;;;1.52;0.80;;;14.70;83.00;;;;;;5074416;28;20026;-76
2023/09/08 01:45:10;;;;;;;0.98;0.70;;;14.70;83.00;;;;;;5074113;28;20434;-77
2023/09/08 01:47:38;;;;;;;1.30;0.65;;;14.70;82.60;;;;;;5074326;28;20461;-76
2023/09/08 01:50:06;;;;;;;1.05;0.70;;;14.70;82.60;;;;;;5074394;28;20089;-76
2023/09/08 01:52:34;;;;;;;1.13;0.70;;;14.80;82.20;;;;;;5074402;28;20021;-79
2023/09/08 01:55:01;;;;;;;4.00;0.65;;;14.70;81.90;;;;;;5073921;28;20029;-75
2023/09/08 01:57:29;;;;;;;2.95;0.65;;;14.80;81.50;;;;;;5074145;28;20031;-88
2023/09/08 01:59:56;;;;;;;0.60;0.50;;;14.80;81.00;;;;;;5073253;28;20467;-81
2023/09/08 02:02:23;;;;;;;1.30;0.60;;;14.80;81.10;;;;;;5074170;28;20028;-77
2023/09/08 02:04:51;;;;;;;2.35;0.73;;;14.80;80.90;;;;;;5074113;28;20020;-77
2023/09/08 02:07:18;;;;;;;3.20;0.60;;;14.90;80.70;;;;;;5073908;28;20360;-89
2023/09/08 02:09:46;;;;;;;1.92;0.65;;;14.90;79.80;;;;;;5073952;28;20036;-75
2023/09/08 02:12:13;;;;;;;0.50;0.45;;;14.90;79.30;;;;;;5073960;28;20471;-75
2023/09/08 02:14:40;;;;;;;2.25;0.63;;;14.80;78.70;;;;;;5073790;28;20029;-75
2023/09/08 02:17:08;;;;;;;1.17;0.80;;;14.80;78.80;;;;;;5073552;28;20069;-75
2023/09/08 02:19:35;;;;;;;1.10;0.80;;;14.80;78.30;;;;;;5069453;28;20435;-75
2023/09/08 02:22:03;;;;;;;0.60;0.60;;;14.80;78.60;;;;;;5067822;28;20024;-76
2023/09/08 02:24:30;;;;;;;0.85;0.60;;;14.80;78.70;;;;;;5067459;28;21018;-76
2023/09/08 02:26:57;;;;;;;1.45;0.80;;;14.80;78.70;;;;;;5066885;28;20072;-76
2023/09/08 02:29:25;;;;;;;1.90;0.90;;;14.80;79.10;;;;;;5067548;28;20136;-78
2023/09/08 02:31:52;;;;;;;1.40;0.77;;;14.90;79.20;;;;;;5067597;28;20032;-81
2023/09/08 02:34:20;;;;;;;2.03;0.50;;;14.80;79.00;;;;;;5067313;28;20017;-77
2023/09/08 02:36:50;;;;;;;1.50;0.73;;;14.90;78.50;;;;;;5067418;28;20036;-81
2023/09/08 02:39:18;;;;;;;0.60;0.50;;;14.90;78.20;;;;;;5067640;28;21240;-78
2023/09/08 02:41:45;;;;;;;2.30;0.77;;;14.90;78.10;;;;;;5067511;28;20029;-76
2023/09/08 02:44:13;;;;;;;1.20;0.60;;;15.00;77.90;;;;;;5067736;28;20024;-75
2023/09/08 02:46:40;;;;;;;0.70;0.52;;;15.00;77.30;;;;;;5067305;28;20099;-76
2023/09/08 02:49:07;;;;;;;1.30;0.50;;;15.10;77.20;;;;;;5071188;28;20390;-76
2023/09/08 02:51:35;;;;;;;2.10;0.65;;;15.10;77.00;;;;;;5073415;28;20016;-83
2023/09/08 02:54:02;;;;;;;2.67;0.70;;;15.20;76.20;;;;;;5073414;28;20020;-75
2023/09/08 02:56:29;;;;;;;1.77;0.70;;;15.20;76.00;;;;;;5075058;28;20028;-80
2023/09/08 02:58:57;;;;;;;1.75;0.70;;;15.20;75.90;;;;;;5074212;28;20487;-73
2023/09/08 03:01:24;;;;;;;0.70;0.50;;;15.20;74.60;;;;;;5074507;28;20039;-77
2023/09/08 03:03:52;;;;;;;0.88;0.57;;;15.20;74.30;;;;;;5073270;28;20024;-75
2023/09/08 03:06:21;;;;;;;1.10;0.60;;;15.20;73.40;;;;;;5073074;28;20020;-77
2023/09/08 03:08:48;;;;;;;3.03;0.68;;;15.20;73.60;;;;;;5072919;28;20472;-77
2023/09/08 03:11:15;;;;;;;1.05;0.50;;;15.20;73.30;;;;;;5072687;28;20032;-77
2023/09/08 03:13:43;;;;;;;1.63;0.50;;;15.20;72.80;;;;;;5072781;28;20071;-87
2023/09/08 03:16:11;;;;;;;0.40;0.40;;;15.30;72.50;;;;;;5072766;28;20028;-74
2023/09/08 03:18:39;;;;;;;1.27;0.60;;;15.40;71.90;;;;;;5072446;28;20490;-75
2023/09/08 03:21:10;;;;;;;0.85;0.63;;;15.40;71.60;;;;;;5072673;28;20028;-75
2023/09/08 03:23:42;;;;;;;1.35;0.80;;;15.40;71.00;;;;;;5072697;28;20435;-75
2023/09/08 03:26:11;;;;;;;1.77;0.70;;;15.50;71.10;;;;;;5072595;28;20063;-76
2023/09/08 03:28:39;;;;;;;1.77;0.60;;;15.50;71.30;;;;;;5072474;28;20483;-76
2023/09/08 03:31:06;;;;;;;1.13;0.45;;;15.70;71.20;;;;;;5072472;28;20033;-75
2023/09/08 03:33:34;;;;;;;2.70;0.70;;;15.80;69.70;;;;;;5073051;28;20024;-75
2023/09/08 03:36:02;;;;;;;2.65;0.50;;;15.80;68.90;;;;;;5072624;28;20055;-75
2023/09/08 03:38:29;;;;;;;1.33;0.60;;;15.90;68.20;;;;;;5072535;28;20440;-75
2023/09/08 03:40:57;;;;;;;2.65;0.60;;;15.90;67.30;;;;;;5072343;28;20028;-76
2023/09/08 03:43:24;;;;;;;1.20;0.60;;;16.00;67.30;;;;;;5072740;28;20021;-80
2023/09/08 03:45:51;;;;;;;0.95;0.63;;;16.10;66.20;;;;;;5076579;28;20060;-75
2023/09/08 03:48:19;;;;;;;0.93;0.55;;;16.20;65.70;;;;;;5076592;28;20494;-75
2023/09/08 03:50:46;;;;;;;1.80;0.68;;;16.40;64.40;;;;;;5076654;28;20108;-77
2023/09/08 03:53:14;;;;;;;1.75;0.50;;;16.50;64.00;;;;;;5076302;28;20052;-75
2023/09/08 03:55:41;;;;;;;1.40;0.60;;;16.60;62.30;;;;;;5076459;28;20112;-77
2023/09/08 03:58:09;;;;;;;2.33;0.73;;;16.70;61.60;;;;;;5076292;28;20418;-75
2023/09/08 04:00:36;;;;;;;0.70;0.57;;;16.90;60.10;;;;;;5076404;28;20077;-75
2023/09/08 04:03:04;;;;;;;0.50;0.50;;;17.00;58.00;;;;;;5076143;28;20024;-75
2023/09/08 04:05:31;;;;;;;0.85;0.77;;;17.20;57.30;;;;;;5076022;28;20021;-75
2023/09/08 04:07:59;;;;;;;2.63;1.15;;;17.20;55.00;;;;;;5076071;28;20122;-78
2023/09/08 04:10:26;;;;;;;1.48;0.60;;;17.30;55.60;;;;;;5076198;28;20069;-75
2023/09/08 04:12:54;;;;;;;1.85;0.60;;;17.50;53.40;;;;;;5075807;28;20017;-74
2023/09/08 04:15:21;;;;;;;3.28;0.85;;;17.70;51.40;;;;;;5075822;28;20039;-75
2023/09/08 04:17:49;;;;;;;2.15;0.60;;;17.80;51.00;;;;;;5075763;28;20102;-75
2023/09/08 04:20:16;;;;;;;1.95;0.43;;;17.90;44.30;;;;;;5074183;28;20104;-75
2023/09/08 04:22:44;;;;;;;1.02;0.55;;;18.00;42.40;;;;;;5074806;28;20127;-76
2023/09/08 04:25:11;;;;;;;4.18;0.57;;;18.20;40.60;;;;;;5075637;28;20108;-76
2023/09/08 04:27:39;;;;;;;0.93;0.60;;;18.20;37.90;;;;;;5075600;28;20047;-76
2023/09/08 04:30:07;;;;;;;1.70;0.50;;;18.30;38.90;;;;;;5075424;28;20028;-77
2023/09/08 04:32:34;;;;;;;1.02;0.43;;;18.40;37.80;;;;;;5075611;28;20068;-76
2023/09/08 04:35:02;;;;;;;2.35;0.60;;;18.50;39.70;;;;;;5075187;28;20036;-76
2023/09/08 04:37:30;;;;;;;1.17;0.70;;;18.60;39.60;;;;;;5076078;28;20030;-79
2023/09/08 04:39:57;;;;;;;1.23;0.77;;;18.70;38.40;;;;;;5076210;28;20066;-75
2023/09/08 04:42:25;;;;;;;0.80;0.50;;;18.70;36.50;;;;;;5075308;28;20029;-76
2023/09/08 04:44:53;;;;;;;0.80;0.57;;;18.70;34.90;;;;;;5075010;28;20035;-75
2023/09/08 04:47:20;;;;;;;1.15;0.60;;;18.70;35.20;;;;;;5075020;28;20389;-77
2023/09/08 04:49:48;;;;;;;1.27;0.85;;;18.80;34.40;;;;;;5074889;28;20066;-77
2023/09/08 04:52:16;;;;;;;0.85;0.40;;;18.90;36.00;;;;;;5074769;28;20020;-80
2023/09/08 04:54:44;;;;;;;0.70;0.50;;;18.90;32.20;;;;;;5074740;28;20104;-77
2023/09/08 04:57:11;;;;;;;0.68;0.40;;;18.90;32.40;;;;;;5071141;28;20090;-76
2023/09/08 04:59:39;;;;;;;3.72;0.47;;;18.90;31.40;;;;;;5074770;28;20372;-76
2023/09/08 05:02:06;;;;;;;1.33;0.52;;;19.00;33.20;;;;;;5074611;28;20021;-76
2023/09/08 05:04:34;;;;;;;1.75;0.38;;;19.00;33.00;;;;;;5074455;28;20024;-75
2023/09/08 05:07:02;;;;;;;0.47;0.40;;;19.10;33.10;;;;;;5073035;28;20077;-77
2023/09/08 05:09:29;;;;;;;0.60;0.43;;;19.20;32.40;;;;;;5074428;28;20021;-76
2023/09/08 05:11:59;;;;;;;0.93;0.30;;;19.20;33.20;;;;;;5073372;28;20027;-76
2023/09/08 05:14:29;;;;;;;1.45;0.40;;;19.20;31.00;;;;;;5074893;28;20033;-78
2023/09/08 05:16:57;;;;;;;0.80;0.47;;;19.30;31.70;;;;;;5067087;28;20028;-75
2023/09/08 05:19:24;;;;;;;0.57;0.32;;;19.30;30.20;;;;;;5069342;28;20020;-76
2023/09/08 05:21:56;;;;;;;0.63;0.40;;;19.30;30.80;;;;;;5068277;28;20016;-75
2023/09/08 05:24:25;;;;;;;0.95;0.55;;;19.40;31.90;;;;;;5069643;28;20029;-76
2023/09/08 05:26:52;;;;;;;1.70;0.45;;;19.40;29.90;;;;;;5067117;28;20053;-76
2023/09/08 05:29:20;;;;;;;1.13;0.40;;;19.50;29.20;;;;;;5069056;28;20388;-75
2023/09/08 05:31:47;;;;;;;3.30;0.70;;;19.40;31.90;;;;;;5069140;28;20513;-77
2023/09/08 05:34:15;;;;;;;1.17;0.50;;;19.40;31.50;;;;;;5069373;28;20024;-77
2023/09/08 05:36:42;;;;;;;0.73;0.40;;;19.40;29.40;;;;;;5067110;28;20704;-77
2023/09/08 05:39:10;;;;;;;1.27;0.50;;;19.40;31.90;;;;;;5068528;28;20027;-75
2023/09/08 05:41:37;;;;;;;0.90;0.50;;;19.40;31.60;;;;;;5068618;28;20490;-75
2023/09/08 05:44:05;;;;;;;3.45;0.50;;;19.30;31.30;;;;;;5069048;28;20020;-77
2023/09/08 05:46:32;;;;;;;1.23;0.80;;;19.30;31.30;;;;;;5066003;28;20039;-76
2023/09/08 05:49:00;;;;;;;3.83;0.93;;;19.30;30.50;;;;;;5068618;28;20021;-76
2023/09/08 05:51:27;;;;;;;0.50;0.50;;;19.20;30.90;;;;;;5068774;28;20115;-75
2023/09/08 05:53:54;;;;;;;2.35;0.68;;;19.20;30.50;;;;;;5069703;28;20021;-74
2023/09/08 05:56:24;;;;;;;1.92;0.73;;;19.20;31.70;;;;;;5067640;28;20041;-76
2023/09/08 05:58:52;;;;;;;0.38;0.30;;;19.10;32.20;;;;;;5069332;28;20024;-76
2023/09/08 06:01:19;;;;;;;0.55;0.40;;;19.00;32.30;;;;;;5069331;28;20020;-80
2023/09/08 06:03:47;;;;;;;2.10;0.55;;;19.00;32.10;;;;;;5071160;28;20024;-76
2023/09/08 06:06:14;;;;;;;0.63;0.50;;;18.90;31.90;;;;;;5067536;28;20511;-75
2023/09/08 06:08:41;;;;;;;1.35;0.45;;;18.80;34.20;;;;;;5068747;28;20037;-75
2023/09/08 06:11:09;;;;;;;1.75;0.50;;;18.80;31.90;;;;;;5068427;28;20545;-75
2023/09/08 06:13:36;;;;;;;1.30;0.40;;;18.70;33.50;;;;;;5069051;28;20581;-76
2023/09/08 06:16:04;;;;;;;0.90;0.40;;;18.60;34.60;;;;;;5067072;28;20100;-76
2023/09/08 06:18:31;;;;;;;0.75;0.38;;;18.50;34.50;;;;;;5068908;28;20029;-76
2023/09/08 06:20:58;;;;;;;1.42;0.55;;;18.50;34.50;;;;;;5068446;28;20025;-76
2023/09/08 06:23:26;;;;;;;1.40;0.60;;;18.40;34.90;;;;;;5067586;28;20021;-75
2023/09/08 06:26:00;;;;;;;0.90;0.70;;;18.30;35.00;;;;;;5066176;28;20024;-75
2023/09/08 06:28:31;;;;;;;1.02;0.50;;;18.30;35.30;;;;;;5068384;28;20072;-76
2023/09/08 06:30:58;;;;;;;0.73;0.50;;;18.20;35.10;;;;;;5067531;28;20033;-76
2023/09/08 06:33:25;;;;;;;0.82;0.60;;;18.20;36.80;;;;;;5067827;28;20081;-76
2023/09/08 06:35:53;;;;;;;1.35;0.80;;;18.20;35.70;;;;;;5064847;28;20028;-76
2023/09/08 06:38:21;;;;;;;0.40;0.40;;;18.20;35.40;;;;;;5067915;28;20021;-75
2023/09/08 06:40:49;;;;;;;0.70;0.60;;;18.10;35.50;;;;;;5067864;28;20532;-76
2023/09/08 06:43:16;;;;;;;0.63;0.52;;;18.00;34.60;;;;;;5066755;28;20036;-76
2023/09/08 06:45:47;;;;;;;0.98;0.50;;;18.00;35.40;;;;;;5065926;28;20562;-76
2023/09/08 06:48:14;;;;;;;0.40;0.40;;;17.90;36.70;;;;;;5067469;28;20028;-75
2023/09/08 06:50:42;;;;;;;0.40;0.40;;;17.80;37.00;;;;;;5067272;28;20020;-75
2023/09/08 06:53:10;;;;;;;2.03;0.52;;;17.80;37.00;;;;;;5066499;28;20379;-75
2023/09/08 06:55:37;;;;;;;3.05;0.70;;;17.80;38.00;;;;;;5065185;28;20076;-76
2023/09/08 06:58:05;;;;;;;2.20;0.40;;;17.70;38.00;;;;;;5067169;28;20021;-75
2023/09/08 07:00:33;;;;;;;1.13;0.50;;;17.70;37.80;;;;;;5065713;28;20129;-75
2023/09/08 07:03:02;;;;;;;1.70;0.60;;;17.70;39.00;;;;;;5067059;28;20025;-75
2023/09/08 07:05:29;;;;;;;1.80;0.60;;;17.70;39.00;;;;;;5065697;28;20023;-76
2023/09/08 07:07:56;;;;;;;0.32;0.30;;;17.70;39.60;;;;;;5066831;28;20083;-76
2023/09/08 07:10:24;;;;;;;0.55;0.43;;;17.60;40.10;;;;;;5066946;28;20020;-81
2023/09/08 07:12:53;;;;;;;1.40;0.50;;;17.60;40.10;;;;;;5067045;28;20392;-76
2023/09/08 07:15:20;;;;;;;0.40;0.40;;;17.40;39.20;;;;;;5066351;28;20086;-76
2023/09/08 07:17:47;;;;;;;0.38;0.30;;;17.30;40.00;;;;;;5066744;28;20077;-75
2023/09/08 07:20:15;;;;;;;0.40;0.40;;;17.20;40.40;;;;;;5066706;28;20036;-76
2023/09/08 07:22:42;;;;;;;2.92;0.55;;;17.10;41.40;;;;;;5066875;28;20025;-77
2023/09/08 07:25:10;;;;;;;1.52;0.70;;;17.10;42.20;;;;;;5067868;28;20024;-75
2023/09/08 07:27:37;;;;;;;3.90;0.65;;;17.00;42.10;;;;;;5069403;28;20039;-75
2023/09/08 07:30:06;;;;;;;1.35;0.57;;;16.90;41.60;;;;;;5069731;28;20017;-76
2023/09/08 07:32:34;;;;;;;0.73;0.45;;;16.90;42.70;;;;;;5067417;28;20067;-76
2023/09/08 07:35:01;;;;;;;0.68;0.50;;;16.80;41.50;;;;;;5067313;28;20036;-76
2023/09/08 07:37:29;;;;;;;0.50;0.40;;;16.70;42.70;;;;;;5066796;28;20127;-75
2023/09/08 07:39:57;;;;;;;1.45;0.60;;;16.70;43.00;;;;;;5074977;28;20498;-83
2023/09/08 07:42:27;;;;;;;0.95;0.60;;;16.60;42.50;;;;;;5085058;28;20111;-87
2023/09/08 07:44:54;;;;;;;1.02;0.68;;;16.50;43.60;;;;;;5073039;28;20483;-76
2023/09/08 07:47:21;;;;;;;0.90;0.68;;;16.50;43.50;;;;;;5071817;28;20028;-79
2023/09/08 07:49:50;;;;;;;1.70;0.80;;;16.50;43.80;;;;;;5079588;28;20020;-85
2023/09/08 07:52:17;;;;;;;2.63;0.80;;;16.40;44.50;;;;;;5084691;28;20138;-76
2023/09/08 07:54:44;;;;;;;1.63;0.77;;;16.30;44.00;;;;;;5080175;28;20433;-76
2023/09/08 07:57:12;;;;;;;0.65;0.60;;;16.30;43.80;;;;;;5071291;28;20407;-77
2023/09/08 07:59:39;;;;;;;3.03;0.82;;;16.30;44.40;;;;;;5079389;28;20023;-78
2023/09/08 08:02:06;;;;;;;1.95;0.75;;;16.30;44.30;;;;;;5069894;28;20036;-76
2023/09/08 08:04:34;;;;;;;1.55;0.75;;;16.20;44.40;;;;;;5069842;28;20016;-77
2023/09/08 08:07:02;;;;;;;2.03;0.68;;;16.20;44.70;;;;;;5071128;28;20044;-77
2023/09/08 08:09:30;;;;;;;0.65;0.60;;;16.00;44.70;;;;;;5067980;28;20024;-79
2023/09/08 08:11:57;;;;;;;2.22;0.60;;;16.00;44.90;;;;;;5069275;28;20029;-76
2023/09/08 08:14:24;;;;;;;1.70;0.70;;;15.90;45.30;;;;;;5065578;28;20028;-76
2023/09/08 08:16:52;;;;;;;1.10;0.75;;;16.00;45.30;;;;;;5075415;28;20028;-76
2023/09/08 08:19:20;;;;;;;1.58;0.55;;;15.80;45.70;;;;;;5086375;28;20021;-78
2023/09/08 08:21:47;;;;;;;2.00;1.33;;;15.80;46.10;;;;;;5081475;28;20028;-82
2023/09/08 08:24:14;;;;;;;1.42;1.10;;;15.70;46.80;;;;;;5078888;28;20017;-77
2023/09/08 08:26:42;;;;;;;1.05;0.85;;;15.80;46.30;;;;;;5088318;28;20040;-75
2023/09/08 08:29:09;;;;;;;2.50;0.90;;;15.70;46.00;;;;;;5066997;28;20032;-77
2023/09/08 08:31:36;;;;;;;1.25;0.90;;;15.70;46.70;;;;;;5069197;28;20039;-76
2023/09/08 08:34:04;;;;;;;2.47;0.80;;;15.60;46.40;;;;;;5075458;28;20034;-76
2023/09/08 08:36:32;;;;;;;2.53;0.70;;;15.50;46.70;;;;;;5094359;28;20032;-77
2023/09/08 08:38:59;;;;;;;0.80;0.60;;;15.50;46.80;;;;;;5082814;28;20028;-76
2023/09/08 08:41:28;;;;;;;1.05;0.50;;;15.50;46.30;;;;;;5075185;28;20032;-76
2023/09/08 08:43:57;;;;;;;0.85;0.70;;;15.50;46.10;;;;;;5074594;28;20388;-76
2023/09/08 08:46:26;;;;;;;1.25;0.65;;;15.30;46.00;;;;;;5075606;28;20025;-76
2023/09/08 08:48:54;;;;;;;1.67;0.70;;;15.30;45.50;;;;;;5074398;28;20020;-76
2023/09/08 08:51:24;;;;;;;1.30;0.75;;;15.30;46.20;;;;;;5075118;28;20108;-77
2023/09/08 08:53:52;;;;;;;1.02;0.80;;;15.30;46.70;;;;;;5075331;28;20533;-76
2023/09/08 08:56:20;;;;;;;1.25;0.85;;;15.20;47.70;;;;;;5075341;28;20029;-76
2023/09/08 08:58:48;;;;;;;1.42;0.90;;;15.20;47.10;;;;;;5075269;28;20027;-77
2023/09/08 09:01:21;;;;;;;2.75;1.00;;;15.20;45.70;;;;;;5074977;28;20033;-76
2023/09/08 09:03:50;;;;;;;1.35;0.88;;;15.20;45.80;;;;;;5075145;28;20118;-76
2023/09/08 09:06:18;;;;;;;1.75;0.63;;;15.10;46.40;;;;;;5075212;28;20028;-76
2023/09/08 09:08:46;;;;;;;1.40;0.73;;;15.10;46.50;;;;;;5075171;28;20391;-77
2023/09/08 09:11:14;;;;;;;1.85;0.85;;;15.10;46.10;;;;;;5074869;28;20082;-76
2023/09/08 09:13:41;;;;;;;2.10;1.10;;;15.00;46.10;;;;;;5075176;28;20017;-78
2023/09/08 09:16:10;;;;;;;1.95;1.08;;;15.00;46.10;;;;;;5075127;28;20391;-77
2023/09/08 09:18:57;;;;;;;2.15;1.10;;;15.00;47.10;;;;;;5074989;28;20020;-77
2023/09/08 09:21:25;;;;;;;2.53;1.15;;;15.00;46.70;;;;;;5075049;28;20475;-76
2023/09/08 09:23:53;;;;;;;2.78;1.10;;;14.90;46.80;;;;;;5074919;28;20482;-77
2023/09/08 09:26:27;;;;;;;1.60;1.00;;;14.90;47.20;;;;;;5074598;28;20453;-78
2023/09/08 09:28:55;;;;;;;1.48;1.02;;;14.80;47.60;;;;;;5074677;28;20036;-75
2023/09/08 09:31:26;;;;;;;1.88;1.05;;;14.80;47.60;;;;;;5074772;28;20360;-78
2023/09/08 09:34:06;;;;;;;2.15;0.98;;;14.80;47.30;;;;;;5074761;28;20025;-79
2023/09/08 09:36:33;;;;;;;2.25;1.25;;;14.70;48.40;;;;;;5074783;28;20498;-79
2023/09/08 09:39:01;;;;;;;2.53;1.05;;;14.80;48.40;;;;;;5073218;28;20094;-77
2023/09/08 09:41:31;;;;;;;2.22;1.08;;;14.70;49.00;;;;;;5089848;28;20020;-77
2023/09/08 09:43:59;;;;;;;1.50;1.10;;;14.70;48.90;;;;;;5094832;28;20082;-76
2023/09/08 09:46:29;;;;;;;2.97;0.95;;;14.70;49.30;;;;;;5094757;28;20403;-75
2023/09/08 09:48:56;;;;;;;1.27;1.00;;;14.70;49.40;;;;;;5094905;28;20024;-77
2023/09/08 09:51:24;;;;;;;2.75;1.27;;;14.70;50.20;;;;;;5095069;28;20139;-83
2023/09/08 09:53:52;;;;;;;1.88;1.13;;;14.70;49.60;;;;;;5093539;28;20020;-77
2023/09/08 09:56:20;;;;;;;2.47;0.95;;;14.70;50.10;;;;;;5094306;28;20034;-76
2023/09/08 09:58:51;;;;;;;2.30;0.90;;;14.70;51.60;;;;;;5094644;28;20046;-76
2023/09/08 10:01:19;;;;;;;1.92;1.23;;;14.70;50.50;;;;;;5094449;28;20394;-78
2023/09/08 10:03:48;;;;;;;1.63;0.90;;;14.70;51.40;;;;;;5094310;28;20494;-76
2023/09/08 10:06:16;;;;;;;1.08;0.80;;;14.70;51.20;;;;;;5094497;28;20032;-77
2023/09/08 10:08:44;;;;;;;3.30;0.90;;;14.70;51.60;;;;;;5094360;28;20107;-77
2023/09/08 10:11:14;;;;;;;1.08;0.85;;;14.70;51.90;;;;;;5093955;28;20116;-77
2023/09/08 10:13:50;;;;;;;1.13;0.88;;;14.60;50.80;;;;;;5094125;28;20020;-77
2023/09/08 10:16:21;;;;;;;2.30;0.90;;;14.60;50.80;;;;;;5092740;28;20036;-76
2023/09/08 10:18:52;;;;;;;1.70;0.98;;;14.50;50.10;;;;;;5094121;28;20490;-77
2023/09/08 10:21:21;;;;;;;1.38;0.90;;;14.50;50.40;;;;;;5094083;28;20024;-76
2023/09/08 10:24:09;;;;;;;2.97;1.20;;;14.50;50.70;;;;;;5094090;28;20484;-80
2023/09/08 10:26:40;;;;;;;1.48;1.23;;;14.40;50.20;;;;;;5093503;28;20115;-77
2023/09/08 10:29:08;;;;;;;2.03;0.95;;;14.40;51.90;;;;;;5093749;28;20019;-77
2023/09/08 10:31:36;;;;;;;2.15;1.20;;;14.40;53.80;;;;;;5093939;28;20024;-77
2023/09/08 10:34:04;;;;;;;3.03;1.17;;;14.40;51.70;;;;;;5093736;28;20471;-77
2023/09/08 10:36:32;;;;;;;2.67;1.05;;;14.40;51.40;;;;;;5093597;28;20043;-76
2023/09/08 10:39:30;;;;;;;3.17;1.13;;;14.30;50.80;;;;;;5093506;28;20363;-75
2023/09/08 10:42:19;;;;;;;1.45;0.80;;;14.20;52.10;;;;;;5093657;28;20028;-78
2023/09/08 10:45:16;;;;;;;1.45;0.70;;;14.20;51.60;;;;;;5093680;28;20032;-77
2023/09/08 10:47:47;;;;;;;0.85;0.60;;;14.20;51.10;;;;;;5087849;28;20032;-76
2023/09/08 10:50:18;;;;;;;0.82;0.60;;;14.20;51.20;;;;;;5093579;28;20486;-76
2023/09/08 10:53:04;;;;;;;2.30;0.60;;;14.20;51.40;;;;;;5093321;28;20020;-78
2023/09/08 10:55:42;;;;;;;5.15;1.00;;;14.20;50.70;;;;;;5093312;28;20051;-76
2023/09/08 10:58:18;;;;;;;3.22;0.77;;;14.20;52.10;;;;;;5093373;28;20119;-78
2023/09/08 11:00:48;;;;;;;0.87;0.80;;;14.10;51.50;;;;;;5093516;28;20024;-76
2023/09/08 11:03:26;;;;;;;1.20;0.90;;;14.10;50.90;;;;;;5093197;28;20261;-78
2023/09/08 11:05:54;;;;;;;2.95;1.20;;;14.10;51.90;;;;;;5093132;28;20114;-76
2023/09/08 11:08:21;;;;;;;3.35;1.10;;;14.10;51.60;;;;;;5093301;28;20024;-77
2023/09/08 11:10:50;;;;;;;2.20;1.17;;;14.00;52.20;;;;;;5091944;28;20027;-76
2023/09/08 11:13:18;;;;;;;3.17;1.60;;;14.10;51.30;;;;;;5093226;28;20370;-77
2023/09/08 11:15:45;;;;;;;2.78;1.50;;;14.00;51.50;;;;;;5091688;28;20410;-76
2023/09/08 11:18:13;;;;;;;4.88;2.67;;;13.90;51.50;;;;;;5093138;28;20116;-78
2023/09/08 11:20:40;;;;;;;2.65;1.80;;;13.90;52.20;;;;;;5093100;28;20039;-76
2023/09/08 11:23:08;;;;;;;3.47;1.50;;;13.90;52.40;;;;;;5092812;28;20035;-76
2023/09/08 11:25:35;;;;;;;4.30;1.55;;;13.90;52.70;;;;;;5092847;28;20490;-76
2023/09/08 11:28:03;;;;;;;4.72;1.20;;;13.90;52.80;;;;;;5092907;28;20052;-77
2023/09/08 11:30:31;;;;;;;2.03;1.00;;;13.90;52.80;;;;;;5092906;28;20020;-77
2023/09/08 11:32:58;;;;;;;1.20;0.77;;;13.90;52.90;;;;;;5092681;28;20070;-77
2023/09/08 11:35:28;;;;;;;1.80;0.93;;;13.80;52.80;;;;;;5092881;28;20028;-79
2023/09/08 11:38:01;;;;;;;1.10;0.63;;;13.90;55.20;;;;;;5083852;28;20029;-79
2023/09/08 11:40:28;;;;;;;1.83;0.65;;;13.90;54.00;;;;;;5070419;28;20332;-76
2023/09/08 11:42:56;;;;;;;3.22;0.90;;;13.80;53.70;;;;;;5070775;28;20036;-79
2023/09/08 11:45:24;;;;;;;3.15;0.90;;;13.90;54.30;;;;;;5071346;28;20027;-76
2023/09/08 11:47:55;;;;;;;2.90;0.93;;;13.90;55.40;;;;;;5072502;28;20356;-85
2023/09/08 11:50:23;;;;;;;2.40;1.15;;;13.90;55.10;;;;;;5073853;28;20055;-84
2023/09/08 11:52:52;;;;;;;3.58;1.40;;;13.90;53.50;;;;;;5082285;28;20024;-76
2023/09/08 11:55:21;;;;;;;2.22;1.40;;;13.90;53.60;;;;;;5084753;28;20052;-81
2023/09/08 11:58:02;;;;;;;5.57;1.20;;;13.80;53.40;;;;;;5077679;28;20063;-85
2023/09/08 12:00:32;;;;;;;1.67;0.80;;;13.80;53.90;;;;;;5075144;28;20024;-82
2023/09/08 12:03:19;;;;;;;4.78;1.45;;;13.80;54.10;;;;;;5070178;28;20029;-79
2023/09/08 12:05:52;;;;;;;2.85;0.93;;;13.80;53.70;;;;;;5073866;28;20027;-77
2023/09/08 12:08:20;;;;;;;2.65;0.93;;;13.80;53.60;;;;;;5074322;28;20036;-82
2023/09/08 12:10:47;;;;;;;1.50;0.93;;;13.80;53.70;;;;;;5075273;28;20103;-82
2023/09/08 12:13:25;;;;;;;5.22;1.48;;;13.80;55.00;;;;;;5076355;28;20021;-85
2023/09/08 12:15:53;;;;;;;2.72;1.02;;;13.70;54.90;;;;;;5076368;28;20036;-85
2023/09/08 12:18:39;;;;;;;3.47;1.05;;;13.70;54.00;;;;;;5076418;28;20017;-85
2023/09/08 12:21:09;;;;;;;2.75;1.10;;;13.70;54.30;;;;;;5076365;28;20017;-81
2023/09/08 12:23:51;;;;;;;3.60;1.30;;;13.70;55.60;;;;;;5076626;28;20082;-83
2023/09/08 12:26:19;;;;;;;3.75;1.27;;;13.80;54.50;;;;;;5076125;28;20024;-83
2023/09/08 12:28:48;;;;;;;2.20;1.20;;;13.70;55.40;;;;;;5076292;28;20049;-83
2023/09/08 12:31:16;;;;;;;3.05;0.90;;;13.80;55.00;;;;;;5076034;28;20060;-82
2023/09/08 12:33:46;;;;;;;2.15;1.20;;;13.70;54.70;;;;;;5076353;28;20111;-85
2023/09/08 12:36:18;;;;;;;3.15;0.90;;;13.70;54.80;;;;;;5076397;28;20035;-84
2023/09/08 12:38:53;;;;;;;2.53;1.10;;;13.70;54.50;;;;;;5075949;28;20016;-84
2023/09/08 12:41:20;;;;;;;2.05;1.20;;;13.70;55.20;;;;;;5075925;28;20535;-83
2023/09/08 12:43:48;;;;;;;2.80;1.30;;;13.70;55.00;;;;;;5076070;28;20025;-82
2023/09/08 12:46:18;;;;;;;5.53;1.17;;;13.80;55.70;;;;;;5075830;28;20031;-82
2023/09/08 12:48:46;;;;;;;4.05;1.30;;;13.80;55.20;;;;;;5075812;28;20368;-80
2023/09/08 12:51:13;;;;;;;2.75;1.38;;;13.80;56.40;;;;;;5075474;28;20025;-80
2023/09/08 12:53:40;;;;;;;4.15;1.23;;;13.80;54.50;;;;;;5075644;28;20613;-76
2023/09/08 12:56:08;;;;;;;3.60;1.15;;;13.70;54.90;;;;;;5075550;28;20037;-77